Princeton, California
Current Conditions -  °F | °C
As of 6:53 PM on Friday 19 Dec 2014 (Local Time) from KOVE Reporting Station
Overcast Overcast  
Wind Chill: 52°   Ceiling: 2100
Heat Index: 52°   Visibility: 10mi
Dew Point: 49°   Wind: 6mph
Humidity: 89%   Direction: 130°SE
Pressure: 30.16"   Gusts: NA
Location:  39.4°N, 122.01°W
Report Text: KOVE 200253Z AUTO 13005KT 10SM OVC021 11/09 A3016 RMK AO2 SLP214 60001 T01110094 55005
Loading
Personal Weather Stations






























Interactive Weather Map New forecast layout! Learn more

10-Day Weather Forecast

Advertisements
Track Severe Weather on mobile